FA35 weather

Lindbergh's Landing Airport
Miami, Florida, United States

Public forecast

Using degrees Fahrenheit for public forecast. Weather courtesy of forecast.io.

Closest aviation weather report (METAR) to Lindbergh's Landing Airport

Closest report is Miami Executive Airport, 3.5 nm (6.4 km) ENE. Retrieved 2020/04/07 21:53 UTC (50 minutes ago):

KTMB 072153Z 14009KT 10SM SCT027 28/22 A2999 RMK AO2 SLP154 T02830217

Closest aviation forecast (TAF) to Lindbergh's Landing Airport

Closest forecast is Miami Executive Airport, 3.5 nm (6.4 km) ENE. Retrieved 2020/04/07 18:33 UTC (4 hours ago):

TAF KTMB 071731Z 0718/0818 11011KT P6SM SCT025 BKN035 FM080200 15007KT P6SM SCT020 SCT250 FM080900 VRB05KT P6SM SCT020 BKN050 FM081500 24011KT P6SM FEW250